Hayti, Missouri
Current Conditions -  °F | °C
As of 12:53 PM on Monday 20 Oct 2014 (Local Time) from KHKA Reporting Station
Overcast Overcast  
Wind Chill: 69°   Ceiling: 10000
Heat Index: 69°   Visibility: 10mi
Dew Point: 51°   Wind: 9mph
Humidity: 53%   Direction: 240°WSW
Pressure: 30.04"   Gusts: NA
Location:  36.23°N, 89.75°W
Report Text: KHKA 201753Z AUTO 24008KT 10SM OVC100 21/11 A3004 RMK AO2 SLP172 T02060106 10211 20111 58017
Loading
Personal Weather Stations






























Interactive Weather Map
Tropical Storm Tracking
New forecast layout! Learn more

10-Day Weather Forecast

Advertisements
Track Severe Weather on mobile